sensor_id;sensor_type;location;lat;lon;timestamp;temperature;humidity
8715;DHT22;4394;51.208;8.904;2024-03-07T00:01:36;6.80;99.90
8715;DHT22;4394;51.208;8.904;2024-03-07T00:04:26;6.70;99.90
8715;DHT22;4394;51.208;8.904;2024-03-07T00:07:14;6.80;99.90
8715;DHT22;4394;51.208;8.904;2024-03-07T00:10:03;6.70;99.90
8715;DHT22;4394;51.208;8.904;2024-03-07T00:12:54;6.70;99.90
8715;DHT22;4394;51.208;8.904;2024-03-07T00:15:42;6.60;99.90
8715;DHT22;4394;51.208;8.904;2024-03-07T00:18:30;6.70;99.90
8715;DHT22;4394;51.208;8.904;2024-03-07T00:21:20;6.60;99.90
8715;DHT22;4394;51.208;8.904;2024-03-07T00:24:08;6.70;99.90
8715;DHT22;4394;51.208;8.904;2024-03-07T00:26:57;6.60;99.90
8715;DHT22;4394;51.208;8.904;2024-03-07T00:29:45;6.50;99.90
8715;DHT22;4394;51.208;8.904;2024-03-07T00:32:40;6.50;99.90
8715;DHT22;4394;51.208;8.904;2024-03-07T00:35:28;6.50;99.90
8715;DHT22;4394;51.208;8.904;2024-03-07T00:38:18;6.50;99.90
8715;DHT22;4394;51.208;8.904;2024-03-07T00:41:06;6.50;99.90
8715;DHT22;4394;51.208;8.904;2024-03-07T00:43:54;6.40;99.90
8715;DHT22;4394;51.208;8.904;2024-03-07T00:46:43;6.40;99.90
8715;DHT22;4394;51.208;8.904;2024-03-07T00:49:32;6.40;99.90
8715;DHT22;4394;51.208;8.904;2024-03-07T00:52:21;6.40;99.90
8715;DHT22;4394;51.208;8.904;2024-03-07T00:55:11;6.40;99.90
8715;DHT22;4394;51.208;8.904;2024-03-07T00:57:59;6.40;99.90
8715;DHT22;4394;51.208;8.904;2024-03-07T01:00:47;6.40;99.90
8715;DHT22;4394;51.208;8.904;2024-03-07T01:03:37;6.30;99.90
8715;DHT22;4394;51.208;8.904;2024-03-07T01:06:25;6.30;99.90
8715;DHT22;4394;51.208;8.904;2024-03-07T01:09:14;6.30;99.90
8715;DHT22;4394;51.208;8.904;2024-03-07T01:12:05;6.30;99.90
8715;DHT22;4394;51.208;8.904;2024-03-07T01:14:54;6.30;99.90
8715;DHT22;4394;51.208;8.904;2024-03-07T01:17:44;6.40;99.90
8715;DHT22;4394;51.208;8.904;2024-03-07T01:20:33;6.30;99.90
8715;DHT22;4394;51.208;8.904;2024-03-07T01:23:22;6.30;99.90
8715;DHT22;4394;51.208;8.904;2024-03-07T01:26:11;6.30;99.90
8715;DHT22;4394;51.208;8.904;2024-03-07T01:29:00;6.20;99.90
8715;DHT22;4394;51.208;8.904;2024-03-07T01:31:49;6.20;99.90
8715;DHT22;4394;51.208;8.904;2024-03-07T01:34:37;6.20;99.90
8715;DHT22;4394;51.208;8.904;2024-03-07T01:37:25;6.20;99.90
8715;DHT22;4394;51.208;8.904;2024-03-07T01:40:14;6.20;99.90
8715;DHT22;4394;51.208;8.904;2024-03-07T01:43:02;6.30;99.90
8715;DHT22;4394;51.208;8.904;2024-03-07T01:45:56;6.20;99.90
8715;DHT22;4394;51.208;8.904;2024-03-07T01:48:46;6.20;99.90
8715;DHT22;4394;51.208;8.904;2024-03-07T01:51:36;6.20;99.90
8715;DHT22;4394;51.208;8.904;2024-03-07T01:54:25;6.20;99.90
8715;DHT22;4394;51.208;8.904;2024-03-07T01:57:15;6.10;99.90
8715;DHT22;4394;51.208;8.904;2024-03-07T02:00:06;6.10;99.90
8715;DHT22;4394;51.208;8.904;2024-03-07T02:02:57;6.10;99.90
8715;DHT22;4394;51.208;8.904;2024-03-07T02:05:45;6.00;99.90
8715;DHT22;4394;51.208;8.904;2024-03-07T02:08:33;6.00;99.90
8715;DHT22;4394;51.208;8.904;2024-03-07T02:11:22;6.10;99.90
8715;DHT22;4394;51.208;8.904;2024-03-07T02:14:10;6.00;99.90
8715;DHT22;4394;51.208;8.904;2024-03-07T02:16:59;5.90;99.90
8715;DHT22;4394;51.208;8.904;2024-03-07T02:19:49;5.90;99.90
8715;DHT22;4394;51.208;8.904;2024-03-07T02:22:39;5.80;99.90
8715;DHT22;4394;51.208;8.904;2024-03-07T02:25:27;5.70;99.90
8715;DHT22;4394;51.208;8.904;2024-03-07T02:28:15;5.60;99.90
8715;DHT22;4394;51.208;8.904;2024-03-07T02:31:04;5.60;99.90
8715;DHT22;4394;51.208;8.904;2024-03-07T02:33:52;5.60;99.90
8715;DHT22;4394;51.208;8.904;2024-03-07T02:36:40;5.50;99.90
8715;DHT22;4394;51.208;8.904;2024-03-07T02:39:30;5.40;99.90
8715;DHT22;4394;51.208;8.904;2024-03-07T02:42:18;5.40;99.90
8715;DHT22;4394;51.208;8.904;2024-03-07T02:45:07;5.30;99.90
8715;DHT22;4394;51.208;8.904;2024-03-07T02:47:55;5.30;99.90
8715;DHT22;4394;51.208;8.904;2024-03-07T02:50:43;5.30;99.90
8715;DHT22;4394;51.208;8.904;2024-03-07T02:53:32;5.20;99.90
8715;DHT22;4394;51.208;8.904;2024-03-07T02:56:22;5.10;99.90
8715;DHT22;4394;51.208;8.904;2024-03-07T02:59:10;5.10;99.90
8715;DHT22;4394;51.208;8.904;2024-03-07T03:01:58;5.00;99.90
8715;DHT22;4394;51.208;8.904;2024-03-07T03:04:47;4.90;99.90
8715;DHT22;4394;51.208;8.904;2024-03-07T03:07:35;4.90;99.90
8715;DHT22;4394;51.208;8.904;2024-03-07T03:10:25;4.90;99.90
8715;DHT22;4394;51.208;8.904;2024-03-07T03:13:18;4.90;99.90
8715;DHT22;4394;51.208;8.904;2024-03-07T03:16:06;4.90;99.90
8715;DHT22;4394;51.208;8.904;2024-03-07T03:18:55;4.90;99.90
8715;DHT22;4394;51.208;8.904;2024-03-07T03:21:44;4.80;99.90
8715;DHT22;4394;51.208;8.904;2024-03-07T03:24:32;4.80;99.90
8715;DHT22;4394;51.208;8.904;2024-03-07T03:27:21;4.80;99.90
8715;DHT22;4394;51.208;8.904;2024-03-07T03:30:12;4.70;99.90
8715;DHT22;4394;51.208;8.904;2024-03-07T03:33:00;4.80;99.90
8715;DHT22;4394;51.208;8.904;2024-03-07T03:35:49;4.70;99.90
8715;DHT22;4394;51.208;8.904;2024-03-07T03:38:37;4.70;99.90
8715;DHT22;4394;51.208;8.904;2024-03-07T03:41:26;4.70;99.90
8715;DHT22;4394;51.208;8.904;2024-03-07T03:44:14;4.60;99.90
8715;DHT22;4394;51.208;8.904;2024-03-07T03:47:04;4.60;99.90
8715;DHT22;4394;51.208;8.904;2024-03-07T03:49:52;4.60;99.90
8715;DHT22;4394;51.208;8.904;2024-03-07T03:52:41;4.50;99.90
8715;DHT22;4394;51.208;8.904;2024-03-07T03:55:29;4.50;99.90
8715;DHT22;4394;51.208;8.904;2024-03-07T03:58:19;4.50;99.90
8715;DHT22;4394;51.208;8.904;2024-03-07T04:01:08;4.50;99.90
8715;DHT22;4394;51.208;8.904;2024-03-07T04:04:01;4.50;99.90
8715;DHT22;4394;51.208;8.904;2024-03-07T04:06:50;4.40;99.90
8715;DHT22;4394;51.208;8.904;2024-03-07T04:09:39;4.40;99.90
8715;DHT22;4394;51.208;8.904;2024-03-07T04:12:27;4.40;99.90
8715;DHT22;4394;51.208;8.904;2024-03-07T04:15:16;4.30;99.90
8715;DHT22;4394;51.208;8.904;2024-03-07T04:18:06;4.30;99.90
8715;DHT22;4394;51.208;8.904;2024-03-07T04:20:56;4.20;99.90
8715;DHT22;4394;51.208;8.904;2024-03-07T04:23:45;4.20;99.90
8715;DHT22;4394;51.208;8.904;2024-03-07T04:26:34;4.20;99.90
8715;DHT22;4394;51.208;8.904;2024-03-07T04:29:22;4.30;99.90
8715;DHT22;4394;51.208;8.904;2024-03-07T04:32:10;4.30;99.90
8715;DHT22;4394;51.208;8.904;2024-03-07T04:34:59;4.30;99.90
8715;DHT22;4394;51.208;8.904;2024-03-07T04:37:49;4.30;99.90
8715;DHT22;4394;51.208;8.904;2024-03-07T04:40:39;4.30;99.90
8715;DHT22;4394;51.208;8.904;2024-03-07T04:43:27;4.30;99.90
8715;DHT22;4394;51.208;8.904;2024-03-07T04:46:15;4.30;99.90
8715;DHT22;4394;51.208;8.904;2024-03-07T04:49:04;4.30;99.90
8715;DHT22;4394;51.208;8.904;2024-03-07T04:51:53;4.30;99.90
8715;DHT22;4394;51.208;8.904;2024-03-07T04:54:42;4.40;99.90
8715;DHT22;4394;51.208;8.904;2024-03-07T04:57:31;4.40;99.90
8715;DHT22;4394;51.208;8.904;2024-03-07T05:00:19;4.40;99.90
8715;DHT22;4394;51.208;8.904;2024-03-07T05:03:07;4.50;99.90
8715;DHT22;4394;51.208;8.904;2024-03-07T05:05:56;4.50;99.90
8715;DHT22;4394;51.208;8.904;2024-03-07T05:08:47;4.50;99.90
8715;DHT22;4394;51.208;8.904;2024-03-07T05:11:36;4.50;99.90
8715;DHT22;4394;51.208;8.904;2024-03-07T05:14:25;4.50;99.90
8715;DHT22;4394;51.208;8.904;2024-03-07T05:17:13;4.50;99.90
8715;DHT22;4394;51.208;8.904;2024-03-07T05:20:02;4.50;99.90
8715;DHT22;4394;51.208;8.904;2024-03-07T05:22:56;4.40;99.90
8715;DHT22;4394;51.208;8.904;2024-03-07T05:25:45;4.40;99.90
8715;DHT22;4394;51.208;8.904;2024-03-07T05:28:37;4.40;99.90
8715;DHT22;4394;51.208;8.904;2024-03-07T05:31:25;4.30;99.90
8715;DHT22;4394;51.208;8.904;2024-03-07T05:34:14;4.40;99.90
8715;DHT22;4394;51.208;8.904;2024-03-07T05:37:06;4.30;99.90
8715;DHT22;4394;51.208;8.904;2024-03-07T05:39:54;4.30;99.90
8715;DHT22;4394;51.208;8.904;2024-03-07T05:42:42;4.30;99.90
8715;DHT22;4394;51.208;8.904;2024-03-07T05:45:31;4.20;99.90
8715;DHT22;4394;51.208;8.904;2024-03-07T05:48:20;4.20;99.90
8715;DHT22;4394;51.208;8.904;2024-03-07T05:51:09;4.20;99.90
8715;DHT22;4394;51.208;8.904;2024-03-07T05:53:58;4.20;99.90
8715;DHT22;4394;51.208;8.904;2024-03-07T05:56:46;4.20;99.90
8715;DHT22;4394;51.208;8.904;2024-03-07T05:59:35;4.30;99.90
8715;DHT22;4394;51.208;8.904;2024-03-07T06:02:25;4.30;99.90
8715;DHT22;4394;51.208;8.904;2024-03-07T06:05:14;4.30;99.90
8715;DHT22;4394;51.208;8.904;2024-03-07T06:08:04;4.30;99.90
8715;DHT22;4394;51.208;8.904;2024-03-07T06:10:54;4.30;99.90
8715;DHT22;4394;51.208;8.904;2024-03-07T06:13:42;4.40;99.90
8715;DHT22;4394;51.208;8.904;2024-03-07T06:16:32;4.40;99.90
8715;DHT22;4394;51.208;8.904;2024-03-07T06:19:21;4.40;99.90
8715;DHT22;4394;51.208;8.904;2024-03-07T06:22:09;4.50;99.90
8715;DHT22;4394;51.208;8.904;2024-03-07T06:24:58;4.40;99.90
8715;DHT22;4394;51.208;8.904;2024-03-07T06:27:53;4.50;99.90
8715;DHT22;4394;51.208;8.904;2024-03-07T06:30:44;4.50;99.90
8715;DHT22;4394;51.208;8.904;2024-03-07T06:33:34;4.50;99.90
8715;DHT22;4394;51.208;8.904;2024-03-07T06:36:24;4.50;99.90
8715;DHT22;4394;51.208;8.904;2024-03-07T06:39:13;4.50;99.90
8715;DHT22;4394;51.208;8.904;2024-03-07T06:42:02;4.60;99.90
8715;DHT22;4394;51.208;8.904;2024-03-07T06:44:52;4.40;99.90
8715;DHT22;4394;51.208;8.904;2024-03-07T06:47:41;4.60;99.90
8715;DHT22;4394;51.208;8.904;2024-03-07T06:50:29;4.60;99.90
8715;DHT22;4394;51.208;8.904;2024-03-07T06:53:25;4.60;99.90
8715;DHT22;4394;51.208;8.904;2024-03-07T06:56:15;4.70;99.90
8715;DHT22;4394;51.208;8.904;2024-03-07T06:59:04;4.70;99.90
8715;DHT22;4394;51.208;8.904;2024-03-07T07:01:53;4.70;99.90
8715;DHT22;4394;51.208;8.904;2024-03-07T07:04:41;4.70;99.90
8715;DHT22;4394;51.208;8.904;2024-03-07T07:07:31;4.80;99.90
8715;DHT22;4394;51.208;8.904;2024-03-07T07:10:23;4.80;99.90
8715;DHT22;4394;51.208;8.904;2024-03-07T07:13:11;4.80;99.90
8715;DHT22;4394;51.208;8.904;2024-03-07T07:16:00;4.80;99.90
8715;DHT22;4394;51.208;8.904;2024-03-07T07:18:49;4.90;99.90
8715;DHT22;4394;51.208;8.904;2024-03-07T07:21:39;4.80;99.90
8715;DHT22;4394;51.208;8.904;2024-03-07T07:24:29;4.80;99.90
8715;DHT22;4394;51.208;8.904;2024-03-07T07:27:23;4.90;99.90
8715;DHT22;4394;51.208;8.904;2024-03-07T07:30:12;4.90;99.90
8715;DHT22;4394;51.208;8.904;2024-03-07T07:33:00;4.90;99.90
8715;DHT22;4394;51.208;8.904;2024-03-07T07:35:49;4.90;99.90
8715;DHT22;4394;51.208;8.904;2024-03-07T07:38:37;4.90;99.90
8715;DHT22;4394;51.208;8.904;2024-03-07T07:41:26;4.90;99.90
8715;DHT22;4394;51.208;8.904;2024-03-07T07:44:17;5.00;99.90
8715;DHT22;4394;51.208;8.904;2024-03-07T07:47:06;5.00;99.90
8715;DHT22;4394;51.208;8.904;2024-03-07T07:49:54;5.10;99.90
8715;DHT22;4394;51.208;8.904;2024-03-07T07:52:44;5.00;99.90
8715;DHT22;4394;51.208;8.904;2024-03-07T07:55:33;5.10;99.90
8715;DHT22;4394;51.208;8.904;2024-03-07T07:58:21;5.10;99.90
8715;DHT22;4394;51.208;8.904;2024-03-07T08:01:11;5.10;99.90
8715;DHT22;4394;51.208;8.904;2024-03-07T08:04:03;5.10;99.90
8715;DHT22;4394;51.208;8.904;2024-03-07T08:06:51;5.20;99.90
8715;DHT22;4394;51.208;8.904;2024-03-07T08:09:40;5.20;99.90
8715;DHT22;4394;51.208;8.904;2024-03-07T08:12:28;5.30;99.90
8715;DHT22;4394;51.208;8.904;2024-03-07T08:15:18;5.40;99.90
8715;DHT22;4394;51.208;8.904;2024-03-07T08:18:07;5.40;99.90
8715;DHT22;4394;51.208;8.904;2024-03-07T08:20:58;5.50;99.90
8715;DHT22;4394;51.208;8.904;2024-03-07T08:23:47;5.50;99.90
8715;DHT22;4394;51.208;8.904;2024-03-07T08:26:36;5.60;99.90
8715;DHT22;4394;51.208;8.904;2024-03-07T08:29:24;5.70;99.90
8715;DHT22;4394;51.208;8.904;2024-03-07T08:32:13;5.70;99.90
8715;DHT22;4394;51.208;8.904;2024-03-07T08:35:04;5.70;99.90
8715;DHT22;4394;51.208;8.904;2024-03-07T08:37:54;5.80;99.90
8715;DHT22;4394;51.208;8.904;2024-03-07T08:40:44;5.80;99.90
8715;DHT22;4394;51.208;8.904;2024-03-07T08:43:33;5.90;99.90
8715;DHT22;4394;51.208;8.904;2024-03-07T08:46:22;6.00;99.90
8715;DHT22;4394;51.208;8.904;2024-03-07T08:49:11;6.00;99.90
8715;DHT22;4394;51.208;8.904;2024-03-07T08:52:03;6.10;99.90
8715;DHT22;4394;51.208;8.904;2024-03-07T08:54:54;6.10;99.90
8715;DHT22;4394;51.208;8.904;2024-03-07T08:57:43;6.10;99.90
8715;DHT22;4394;51.208;8.904;2024-03-07T09:00:33;6.20;99.90
8715;DHT22;4394;51.208;8.904;2024-03-07T09:03:25;6.20;99.90
8715;DHT22;4394;51.208;8.904;2024-03-07T09:06:14;6.20;99.90
8715;DHT22;4394;51.208;8.904;2024-03-07T09:09:04;6.20;99.90
8715;DHT22;4394;51.208;8.904;2024-03-07T09:11:55;6.30;99.90
8715;DHT22;4394;51.208;8.904;2024-03-07T09:14:44;6.40;99.90
8715;DHT22;4394;51.208;8.904;2024-03-07T09:17:36;6.40;99.90
8715;DHT22;4394;51.208;8.904;2024-03-07T09:20:24;6.40;99.90
8715;DHT22;4394;51.208;8.904;2024-03-07T09:23:13;6.50;99.90
8715;DHT22;4394;51.208;8.904;2024-03-07T09:26:05;6.50;99.90
8715;DHT22;4394;51.208;8.904;2024-03-07T09:28:55;6.50;99.90
8715;DHT22;4394;51.208;8.904;2024-03-07T09:31:44;6.50;99.90
8715;DHT22;4394;51.208;8.904;2024-03-07T09:34:32;6.50;99.90
8715;DHT22;4394;51.208;8.904;2024-03-07T09:37:22;6.50;99.90
8715;DHT22;4394;51.208;8.904;2024-03-07T09:40:11;6.50;99.90
8715;DHT22;4394;51.208;8.904;2024-03-07T09:43:03;6.60;99.90
8715;DHT22;4394;51.208;8.904;2024-03-07T09:45:55;6.60;99.90
8715;DHT22;4394;51.208;8.904;2024-03-07T09:48:44;6.70;99.90
8715;DHT22;4394;51.208;8.904;2024-03-07T09:51:33;6.70;99.90
8715;DHT22;4394;51.208;8.904;2024-03-07T09:54:23;6.80;99.90
8715;DHT22;4394;51.208;8.904;2024-03-07T09:57:12;6.80;99.90
8715;DHT22;4394;51.208;8.904;2024-03-07T10:00:03;6.80;99.90
8715;DHT22;4394;51.208;8.904;2024-03-07T10:02:57;6.80;99.90
8715;DHT22;4394;51.208;8.904;2024-03-07T10:05:47;6.90;99.90
8715;DHT22;4394;51.208;8.904;2024-03-07T10:08:36;6.90;99.90
8715;DHT22;4394;51.208;8.904;2024-03-07T10:11:25;6.90;99.90
8715;DHT22;4394;51.208;8.904;2024-03-07T10:14:14;6.90;99.90
8715;DHT22;4394;51.208;8.904;2024-03-07T10:17:04;6.90;99.90
8715;DHT22;4394;51.208;8.904;2024-03-07T10:19:52;6.90;99.90
8715;DHT22;4394;51.208;8.904;2024-03-07T10:22:41;6.90;99.90
8715;DHT22;4394;51.208;8.904;2024-03-07T10:25:30;6.90;99.90
8715;DHT22;4394;51.208;8.904;2024-03-07T10:28:19;6.90;99.90
8715;DHT22;4394;51.208;8.904;2024-03-07T10:31:07;6.90;99.90
8715;DHT22;4394;51.208;8.904;2024-03-07T10:34:00;6.90;99.90
8715;DHT22;4394;51.208;8.904;2024-03-07T10:36:49;6.90;99.90
8715;DHT22;4394;51.208;8.904;2024-03-07T10:39:38;7.00;99.90
8715;DHT22;4394;51.208;8.904;2024-03-07T10:42:29;7.00;99.90
8715;DHT22;4394;51.208;8.904;2024-03-07T10:45:20;7.00;99.90
8715;DHT22;4394;51.208;8.904;2024-03-07T10:48:11;7.00;99.90
8715;DHT22;4394;51.208;8.904;2024-03-07T10:51:08;6.90;99.90
8715;DHT22;4394;51.208;8.904;2024-03-07T10:54:08;7.20;99.90
8715;DHT22;4394;51.208;8.904;2024-03-07T10:57:07;7.20;99.90
8715;DHT22;4394;51.208;8.904;2024-03-07T11:00:04;7.30;99.90
8715;DHT22;4394;51.208;8.904;2024-03-07T11:03:11;7.30;99.90
8715;DHT22;4394;51.208;8.904;2024-03-07T11:06:03;7.40;99.90
8715;DHT22;4394;51.208;8.904;2024-03-07T11:08:54;7.40;99.90
8715;DHT22;4394;51.208;8.904;2024-03-07T11:11:44;7.50;99.90
8715;DHT22;4394;51.208;8.904;2024-03-07T11:14:34;7.50;99.90
8715;DHT22;4394;51.208;8.904;2024-03-07T11:17:24;7.60;99.90
8715;DHT22;4394;51.208;8.904;2024-03-07T11:20:19;7.70;99.90
8715;DHT22;4394;51.208;8.904;2024-03-07T11:23:30;7.80;99.90
8715;DHT22;4394;51.208;8.904;2024-03-07T11:26:20;8.00;99.90
8715;DHT22;4394;51.208;8.904;2024-03-07T11:29:41;8.00;99.90
8715;DHT22;4394;51.208;8.904;2024-03-07T11:32:34;8.10;99.90
8715;DHT22;4394;51.208;8.904;2024-03-07T11:35:31;8.10;99.90
8715;DHT22;4394;51.208;8.904;2024-03-07T11:38:33;8.20;99.90
8715;DHT22;4394;51.208;8.904;2024-03-07T11:41:22;8.30;99.90
8715;DHT22;4394;51.208;8.904;2024-03-07T11:44:13;8.40;99.90
8715;DHT22;4394;51.208;8.904;2024-03-07T11:47:02;8.40;99.90
8715;DHT22;4394;51.208;8.904;2024-03-07T11:49:55;8.40;99.90
8715;DHT22;4394;51.208;8.904;2024-03-07T11:52:45;8.40;99.90
8715;DHT22;4394;51.208;8.904;2024-03-07T11:55:36;8.40;99.90
8715;DHT22;4394;51.208;8.904;2024-03-07T11:58:32;8.40;99.90
8715;DHT22;4394;51.208;8.904;2024-03-07T12:01:21;8.40;99.90
8715;DHT22;4394;51.208;8.904;2024-03-07T12:04:12;8.40;99.90
8715;DHT22;4394;51.208;8.904;2024-03-07T12:07:04;8.50;99.90
8715;DHT22;4394;51.208;8.904;2024-03-07T12:09:53;8.50;99.90
8715;DHT22;4394;51.208;8.904;2024-03-07T12:12:44;8.50;99.90
8715;DHT22;4394;51.208;8.904;2024-03-07T12:15:33;8.60;99.90
8715;DHT22;4394;51.208;8.904;2024-03-07T12:18:23;8.60;99.90
8715;DHT22;4394;51.208;8.904;2024-03-07T12:21:12;8.60;99.90
8715;DHT22;4394;51.208;8.904;2024-03-07T12:24:11;8.60;99.90
8715;DHT22;4394;51.208;8.904;2024-03-07T12:27:07;8.50;99.90
8715;DHT22;4394;51.208;8.904;2024-03-07T12:29:58;8.50;99.90
8715;DHT22;4394;51.208;8.904;2024-03-07T12:32:49;8.60;99.90
8715;DHT22;4394;51.208;8.904;2024-03-07T12:35:37;8.60;99.90
8715;DHT22;4394;51.208;8.904;2024-03-07T12:38:27;8.70;99.90
8715;DHT22;4394;51.208;8.904;2024-03-07T12:41:23;8.70;99.90
8715;DHT22;4394;51.208;8.904;2024-03-07T12:44:12;8.80;99.90
8715;DHT22;4394;51.208;8.904;2024-03-07T12:47:04;8.80;99.90
8715;DHT22;4394;51.208;8.904;2024-03-07T12:49:54;8.80;99.90
8715;DHT22;4394;51.208;8.904;2024-03-07T12:52:46;8.70;99.90
8715;DHT22;4394;51.208;8.904;2024-03-07T12:55:37;8.70;99.90
8715;DHT22;4394;51.208;8.904;2024-03-07T12:58:28;8.70;99.90
8715;DHT22;4394;51.208;8.904;2024-03-07T13:01:17;8.60;99.90
8715;DHT22;4394;51.208;8.904;2024-03-07T13:04:08;8.60;99.90
8715;DHT22;4394;51.208;8.904;2024-03-07T13:06:57;8.60;99.90
8715;DHT22;4394;51.208;8.904;2024-03-07T13:09:46;8.60;99.90
8715;DHT22;4394;51.208;8.904;2024-03-07T13:12:35;8.60;99.90
8715;DHT22;4394;51.208;8.904;2024-03-07T13:15:24;8.70;99.90
8715;DHT22;4394;51.208;8.904;2024-03-07T13:18:13;8.70;99.90
8715;DHT22;4394;51.208;8.904;2024-03-07T13:21:04;8.80;99.90
8715;DHT22;4394;51.208;8.904;2024-03-07T13:23:54;8.80;99.90
8715;DHT22;4394;51.208;8.904;2024-03-07T13:26:44;8.90;99.90
8715;DHT22;4394;51.208;8.904;2024-03-07T13:29:35;8.90;99.90
8715;DHT22;4394;51.208;8.904;2024-03-07T13:32:24;9.00;99.90
8715;DHT22;4394;51.208;8.904;2024-03-07T13:35:16;9.00;99.90
8715;DHT22;4394;51.208;8.904;2024-03-07T13:38:09;9.00;99.90
8715;DHT22;4394;51.208;8.904;2024-03-07T13:40:57;9.00;99.90
8715;DHT22;4394;51.208;8.904;2024-03-07T13:43:47;9.00;99.90
8715;DHT22;4394;51.208;8.904;2024-03-07T13:46:37;9.00;99.90
8715;DHT22;4394;51.208;8.904;2024-03-07T13:49:27;9.10;99.90
8715;DHT22;4394;51.208;8.904;2024-03-07T13:52:15;9.20;99.90
8715;DHT22;4394;51.208;8.904;2024-03-07T13:55:07;9.20;99.90
8715;DHT22;4394;51.208;8.904;2024-03-07T13:58:03;9.20;99.90
8715;DHT22;4394;51.208;8.904;2024-03-07T14:00:57;9.10;99.90
8715;DHT22;4394;51.208;8.904;2024-03-07T14:04:38;9.10;99.90
8715;DHT22;4394;51.208;8.904;2024-03-07T14:07:42;9.10;99.90
8715;DHT22;4394;51.208;8.904;2024-03-07T14:11:04;9.20;99.90
8715;DHT22;4394;51.208;8.904;2024-03-07T14:14:20;9.50;99.90
8715;DHT22;4394;51.208;8.904;2024-03-07T14:17:58;9.70;99.90
8715;DHT22;4394;51.208;8.904;2024-03-07T14:27:51;9.70;99.90
8715;DHT22;4394;51.208;8.904;2024-03-07T14:30:45;9.60;99.90
8715;DHT22;4394;51.208;8.904;2024-03-07T14:33:50;9.60;99.90
8715;DHT22;4394;51.208;8.904;2024-03-07T14:36:45;9.70;99.90
8715;DHT22;4394;51.208;8.904;2024-03-07T14:39:35;9.70;99.90
8715;DHT22;4394;51.208;8.904;2024-03-07T14:42:27;9.90;99.90
8715;DHT22;4394;51.208;8.904;2024-03-07T14:45:21;10.00;99.90
8715;DHT22;4394;51.208;8.904;2024-03-07T14:48:12;10.10;99.90
8715;DHT22;4394;51.208;8.904;2024-03-07T14:51:04;10.30;99.90
8715;DHT22;4394;51.208;8.904;2024-03-07T14:53:55;10.40;99.90
8715;DHT22;4394;51.208;8.904;2024-03-07T14:56:44;10.50;99.90
8715;DHT22;4394;51.208;8.904;2024-03-07T14:59:33;10.60;99.90
8715;DHT22;4394;51.208;8.904;2024-03-07T15:02:22;10.70;99.90
8715;DHT22;4394;51.208;8.904;2024-03-07T15:05:13;10.80;99.90
8715;DHT22;4394;51.208;8.904;2024-03-07T15:08:13;10.70;99.90
8715;DHT22;4394;51.208;8.904;2024-03-07T15:11:17;10.70;99.90
8715;DHT22;4394;51.208;8.904;2024-03-07T15:14:08;10.60;99.90
8715;DHT22;4394;51.208;8.904;2024-03-07T15:16:58;10.60;99.90
8715;DHT22;4394;51.208;8.904;2024-03-07T15:19:48;10.50;99.90
8715;DHT22;4394;51.208;8.904;2024-03-07T15:22:42;10.60;99.90
8715;DHT22;4394;51.208;8.904;2024-03-07T15:25:53;10.60;99.90
8715;DHT22;4394;51.208;8.904;2024-03-07T15:29:27;10.70;99.90
8715;DHT22;4394;51.208;8.904;2024-03-07T15:32:19;10.70;99.90
8715;DHT22;4394;51.208;8.904;2024-03-07T15:35:23;10.80;99.90
8715;DHT22;4394;51.208;8.904;2024-03-07T15:38:28;10.70;99.90
8715;DHT22;4394;51.208;8.904;2024-03-07T15:41:17;10.60;99.90
8715;DHT22;4394;51.208;8.904;2024-03-07T15:44:06;10.50;99.90
8715;DHT22;4394;51.208;8.904;2024-03-07T15:47:05;10.50;99.90
8715;DHT22;4394;51.208;8.904;2024-03-07T15:49:56;10.40;99.90
8715;DHT22;4394;51.208;8.904;2024-03-07T15:52:47;10.30;99.90
8715;DHT22;4394;51.208;8.904;2024-03-07T15:55:38;10.30;99.90
8715;DHT22;4394;51.208;8.904;2024-03-07T15:58:28;10.30;99.90
8715;DHT22;4394;51.208;8.904;2024-03-07T16:01:18;10.20;99.90
8715;DHT22;4394;51.208;8.904;2024-03-07T16:04:10;10.10;99.90
8715;DHT22;4394;51.208;8.904;2024-03-07T16:07:04;10.00;99.90
8715;DHT22;4394;51.208;8.904;2024-03-07T16:09:55;9.90;99.90
8715;DHT22;4394;51.208;8.904;2024-03-07T16:12:46;9.80;99.90
8715;DHT22;4394;51.208;8.904;2024-03-07T16:15:37;9.70;99.90
8715;DHT22;4394;51.208;8.904;2024-03-07T16:18:28;9.60;99.90
8715;DHT22;4394;51.208;8.904;2024-03-07T16:21:20;9.60;99.90
8715;DHT22;4394;51.208;8.904;2024-03-07T16:24:10;9.50;99.90
8715;DHT22;4394;51.208;8.904;2024-03-07T16:27:01;9.40;99.90
8715;DHT22;4394;51.208;8.904;2024-03-07T16:29:52;9.30;99.90
8715;DHT22;4394;51.208;8.904;2024-03-07T16:32:43;9.30;99.90
8715;DHT22;4394;51.208;8.904;2024-03-07T16:35:36;9.20;99.90
8715;DHT22;4394;51.208;8.904;2024-03-07T16:38:25;9.10;99.90
8715;DHT22;4394;51.208;8.904;2024-03-07T16:41:15;9.10;99.90
8715;DHT22;4394;51.208;8.904;2024-03-07T16:44:09;9.00;99.90
8715;DHT22;4394;51.208;8.904;2024-03-07T16:47:05;9.00;99.90
8715;DHT22;4394;51.208;8.904;2024-03-07T16:50:00;8.80;99.90
8715;DHT22;4394;51.208;8.904;2024-03-07T16:52:57;8.80;99.90
8715;DHT22;4394;51.208;8.904;2024-03-07T16:55:49;8.70;99.90
8715;DHT22;4394;51.208;8.904;2024-03-07T16:58:39;8.60;99.90
8715;DHT22;4394;51.208;8.904;2024-03-07T17:01:30;8.60;99.90
8715;DHT22;4394;51.208;8.904;2024-03-07T17:04:20;8.50;99.90
8715;DHT22;4394;51.208;8.904;2024-03-07T17:07:14;8.50;99.90
8715;DHT22;4394;51.208;8.904;2024-03-07T17:10:06;8.40;99.90
8715;DHT22;4394;51.208;8.904;2024-03-07T17:13:04;8.30;99.90
8715;DHT22;4394;51.208;8.904;2024-03-07T17:15:56;8.20;99.90
8715;DHT22;4394;51.208;8.904;2024-03-07T17:18:47;8.10;99.90
8715;DHT22;4394;51.208;8.904;2024-03-07T17:21:36;8.10;99.90
8715;DHT22;4394;51.208;8.904;2024-03-07T17:24:25;8.00;99.90
8715;DHT22;4394;51.208;8.904;2024-03-07T17:27:18;8.00;99.90
8715;DHT22;4394;51.208;8.904;2024-03-07T17:30:07;8.00;99.90
8715;DHT22;4394;51.208;8.904;2024-03-07T17:32:57;7.90;99.90
8715;DHT22;4394;51.208;8.904;2024-03-07T17:35:50;7.90;99.90
8715;DHT22;4394;51.208;8.904;2024-03-07T17:38:40;7.90;99.90
8715;DHT22;4394;51.208;8.904;2024-03-07T17:41:28;7.80;99.90
8715;DHT22;4394;51.208;8.904;2024-03-07T17:44:17;7.70;99.90
8715;DHT22;4394;51.208;8.904;2024-03-07T17:47:06;7.70;99.90
8715;DHT22;4394;51.208;8.904;2024-03-07T17:49:57;7.70;99.90
8715;DHT22;4394;51.208;8.904;2024-03-07T17:52:54;7.70;99.90
8715;DHT22;4394;51.208;8.904;2024-03-07T17:55:44;7.70;99.90
8715;DHT22;4394;51.208;8.904;2024-03-07T17:58:33;7.70;99.90
8715;DHT22;4394;51.208;8.904;2024-03-07T18:01:23;7.70;99.90
8715;DHT22;4394;51.208;8.904;2024-03-07T18:04:13;7.60;99.90
8715;DHT22;4394;51.208;8.904;2024-03-07T18:07:02;7.60;99.90
8715;DHT22;4394;51.208;8.904;2024-03-07T18:09:58;7.60;99.90
8715;DHT22;4394;51.208;8.904;2024-03-07T18:12:48;7.50;99.90
8715;DHT22;4394;51.208;8.904;2024-03-07T18:15:39;7.50;99.90
8715;DHT22;4394;51.208;8.904;2024-03-07T18:18:28;7.50;99.90
8715;DHT22;4394;51.208;8.904;2024-03-07T18:21:19;7.40;99.90
8715;DHT22;4394;51.208;8.904;2024-03-07T18:24:09;7.30;99.90
8715;DHT22;4394;51.208;8.904;2024-03-07T18:27:00;7.30;99.90
8715;DHT22;4394;51.208;8.904;2024-03-07T18:29:57;7.30;99.90
8715;DHT22;4394;51.208;8.904;2024-03-07T18:33:03;7.20;99.90
8715;DHT22;4394;51.208;8.904;2024-03-07T18:35:53;7.10;99.90
8715;DHT22;4394;51.208;8.904;2024-03-07T18:38:43;7.10;99.90
8715;DHT22;4394;51.208;8.904;2024-03-07T18:41:32;7.10;99.90
8715;DHT22;4394;51.208;8.904;2024-03-07T18:44:23;7.20;99.90
8715;DHT22;4394;51.208;8.904;2024-03-07T18:47:12;7.00;99.90
8715;DHT22;4394;51.208;8.904;2024-03-07T18:50:06;7.10;99.90
8715;DHT22;4394;51.208;8.904;2024-03-07T18:52:56;7.00;99.90
8715;DHT22;4394;51.208;8.904;2024-03-07T18:55:45;7.00;99.90
8715;DHT22;4394;51.208;8.904;2024-03-07T18:58:37;7.00;99.90
8715;DHT22;4394;51.208;8.904;2024-03-07T19:01:30;7.00;99.90